Time;durP1;ratioP1;P1;durP2;ratioP2;P2;SDS_P1;SDS_P2;PMS_P1;PMS_P2;Temp;Humidity;BMP_temperature;BMP_pressure;BME280_temperature;BME280_humidity;BME280_pressure;Samples;Min_cycle;Max_cycle;Signal;HPM_P1;HPM_P2
2023/05/19 00:00:19;;;;;;;1.63;0.93;;;19.40;60.60;;;;;;5132310;27;45529;-70
2023/05/19 00:02:46;;;;;;;2.22;0.60;;;19.50;60.60;;;;;;5134233;27;45399;-69
2023/05/19 00:05:17;;;;;;;1.10;0.80;;;19.40;60.30;;;;;;5131531;27;45563;-69
2023/05/19 00:07:45;;;;;;;2.28;0.70;;;19.40;60.00;;;;;;5134171;27;47155;-69
2023/05/19 00:10:13;;;;;;;1.25;0.80;;;19.40;60.10;;;;;;5132686;27;45294;-69
2023/05/19 00:12:42;;;;;;;1.80;0.80;;;19.40;59.60;;;;;;5132707;27;45335;-69
2023/05/19 00:15:10;;;;;;;1.65;0.90;;;19.40;59.70;;;;;;5134655;27;45426;-69
2023/05/19 00:17:37;;;;;;;1.80;0.90;;;19.40;59.40;;;;;;5127714;27;47481;-69
2023/05/19 00:20:06;;;;;;;2.50;0.90;;;19.40;59.60;;;;;;5130354;27;45487;-68
2023/05/19 00:22:32;;;;;;;3.65;0.90;;;19.40;59.40;;;;;;5129175;27;45510;-69
2023/05/19 00:24:59;;;;;;;1.77;0.80;;;19.40;59.50;;;;;;5125276;27;45452;-69
2023/05/19 00:27:26;;;;;;;1.40;0.88;;;19.40;59.50;;;;;;5133069;27;46528;-69
2023/05/19 00:29:54;;;;;;;3.65;1.10;;;19.40;60.80;;;;;;5134821;27;45910;-69
2023/05/19 00:32:21;;;;;;;2.08;0.93;;;19.40;60.00;;;;;;5131200;27;45555;-69
2023/05/19 00:34:48;;;;;;;2.60;0.93;;;19.40;60.20;;;;;;5133601;27;45446;-68
2023/05/19 00:37:15;;;;;;;2.55;1.15;;;19.40;60.20;;;;;;5128008;27;47233;-69
2023/05/19 00:39:42;;;;;;;0.90;0.65;;;19.40;60.20;;;;;;5126890;27;45374;-69
2023/05/19 00:42:09;;;;;;;2.30;1.00;;;19.40;60.10;;;;;;5133815;27;45528;-68
2023/05/19 00:44:40;;;;;;;1.35;0.85;;;19.40;60.30;;;;;;5125947;27;45186;-69
2023/05/19 00:47:08;;;;;;;1.92;0.82;;;19.40;60.20;;;;;;5127621;27;46308;-69
2023/05/19 00:49:35;;;;;;;2.40;1.10;;;19.40;60.20;;;;;;5134898;27;45336;-69
2023/05/19 00:52:03;;;;;;;1.35;0.85;;;19.40;60.30;;;;;;5130731;27;45612;-69
2023/05/19 00:54:29;;;;;;;1.73;1.00;;;19.40;60.00;;;;;;5133506;27;45563;-69
2023/05/19 00:56:57;;;;;;;0.95;0.70;;;19.40;59.90;;;;;;5133369;27;46330;-69
2023/05/19 00:59:23;;;;;;;2.28;0.80;;;19.40;59.40;;;;;;5129407;27;45368;-68
2023/05/19 01:01:50;;;;;;;1.55;0.90;;;19.40;59.20;;;;;;5127599;27;45372;-69
2023/05/19 01:04:20;;;;;;;2.92;0.90;;;19.40;59.00;;;;;;5135034;27;45362;-69
2023/05/19 01:06:48;;;;;;;4.10;0.93;;;19.40;59.00;;;;;;5138750;27;45277;-70
2023/05/19 01:09:15;;;;;;;2.65;0.95;;;19.40;58.70;;;;;;5128359;27;45456;-68
2023/05/19 01:11:42;;;;;;;3.17;1.10;;;19.40;58.70;;;;;;5135500;27;45374;-69
2023/05/19 01:14:09;;;;;;;2.03;0.80;;;19.40;58.60;;;;;;5133943;27;45458;-68
2023/05/19 01:16:40;;;;;;;2.20;1.10;;;19.40;58.60;;;;;;5125076;27;46874;-69
2023/05/19 01:19:19;;;;;;;3.15;1.10;;;19.40;58.60;;;;;;5131236;27;46086;-68
2023/05/19 01:22:12;;;;;;;3.38;1.02;;;19.40;58.50;;;;;;5124594;27;45572;-69
2023/05/19 01:25:15;;;;;;;1.88;1.10;;;19.40;58.40;;;;;;5130689;27;45824;-68
2023/05/19 01:28:14;;;;;;;2.38;1.17;;;19.40;58.80;;;;;;5135217;27;48150;-69
2023/05/19 01:30:44;;;;;;;2.00;0.90;;;19.40;59.10;;;;;;5126197;27;46132;-68
2023/05/19 01:33:13;;;;;;;1.55;0.88;;;19.40;58.90;;;;;;5123172;27;45276;-69
2023/05/19 01:35:42;;;;;;;2.35;0.93;;;19.40;59.30;;;;;;5128263;27;45268;-68
2023/05/19 01:38:10;;;;;;;3.00;0.98;;;19.40;59.40;;;;;;5132297;27;47258;-68
2023/05/19 01:40:39;;;;;;;1.90;1.00;;;19.40;59.30;;;;;;5128476;27;45597;-68
2023/05/19 01:43:08;;;;;;;2.17;0.80;;;19.40;59.50;;;;;;5130923;27;45464;-69
2023/05/19 01:45:36;;;;;;;3.03;0.77;;;19.40;59.40;;;;;;5131649;27;45276;-68
2023/05/19 01:48:05;;;;;;;1.10;0.80;;;19.40;59.40;;;;;;5132544;27;45324;-69
2023/05/19 01:50:33;;;;;;;2.53;0.90;;;19.40;59.60;;;;;;5132287;27;45302;-68
2023/05/19 01:53:01;;;;;;;2.42;1.00;;;19.40;59.20;;;;;;5128701;27;45529;-69
2023/05/19 01:55:28;;;;;;;2.75;0.98;;;19.40;58.90;;;;;;5142200;27;45274;-68
2023/05/19 01:58:02;;;;;;;3.83;0.95;;;19.40;58.80;;;;;;5124140;27;45389;-68
2023/05/19 02:00:39;;;;;;;2.58;1.10;;;19.40;58.30;;;;;;5130900;27;45718;-69
2023/05/19 02:03:18;;;;;;;2.35;1.05;;;19.40;58.30;;;;;;5126375;27;45436;-68
2023/05/19 02:05:53;;;;;;;1.10;0.93;;;19.40;58.00;;;;;;5128929;27;45557;-69
2023/05/19 02:08:27;;;;;;;1.83;0.90;;;19.40;58.00;;;;;;5129940;27;47651;-69
2023/05/19 02:11:00;;;;;;;2.00;1.10;;;19.30;57.70;;;;;;5127626;27;45404;-69
2023/05/19 02:13:32;;;;;;;2.05;0.90;;;19.30;57.70;;;;;;5135074;27;45490;-68
2023/05/19 02:16:05;;;;;;;3.13;0.90;;;19.30;57.70;;;;;;5134097;27;45324;-69
2023/05/19 02:18:34;;;;;;;2.38;1.00;;;19.30;58.70;;;;;;5125651;27;48059;-68
2023/05/19 02:21:01;;;;;;;2.53;0.80;;;19.30;57.60;;;;;;5133549;27;45799;-68
2023/05/19 02:23:27;;;;;;;3.40;1.10;;;19.30;57.80;;;;;;5124791;27;45358;-69
2023/05/19 02:25:54;;;;;;;2.70;1.08;;;19.30;58.10;;;;;;5133145;27;45679;-68
2023/05/19 02:28:21;;;;;;;1.67;1.00;;;19.30;58.10;;;;;;5142707;27;47341;-69
2023/05/19 02:30:48;;;;;;;2.00;0.90;;;19.30;58.30;;;;;;5131015;27;45741;-68
2023/05/19 02:33:14;;;;;;;2.38;1.33;;;19.40;58.40;;;;;;5129124;27;45539;-69
2023/05/19 02:35:43;;;;;;;1.67;0.90;;;19.30;58.40;;;;;;5122854;27;45432;-68
2023/05/19 02:38:09;;;;;;;4.47;1.15;;;19.30;58.40;;;;;;5138880;27;46445;-68
2023/05/19 02:40:36;;;;;;;2.50;0.98;;;19.30;58.50;;;;;;5123837;27;45254;-68
2023/05/19 02:43:03;;;;;;;1.70;1.00;;;19.30;58.50;;;;;;5123782;27;45465;-68
2023/05/19 02:45:29;;;;;;;1.55;0.80;;;19.30;58.50;;;;;;5130907;27;45612;-68
2023/05/19 02:47:56;;;;;;;1.98;0.90;;;19.30;58.50;;;;;;5126495;27;47490;-69
2023/05/19 02:50:23;;;;;;;2.25;1.00;;;19.30;58.50;;;;;;5126493;27;45245;-68
2023/05/19 02:52:52;;;;;;;1.52;0.95;;;19.30;58.30;;;;;;5126581;27;45241;-69
2023/05/19 02:55:19;;;;;;;2.60;0.95;;;19.30;58.20;;;;;;5126647;27;45463;-68
2023/05/19 02:57:46;;;;;;;3.10;0.80;;;19.30;58.10;;;;;;5126276;27;47349;-69
2023/05/19 03:00:14;;;;;;;1.63;0.90;;;19.30;58.00;;;;;;5129160;27;45408;-69
2023/05/19 03:02:42;;;;;;;2.65;1.00;;;19.30;58.00;;;;;;5129513;27;45490;-68
2023/05/19 03:05:10;;;;;;;1.75;1.05;;;19.30;58.00;;;;;;5136141;27;45497;-68
2023/05/19 03:07:37;;;;;;;2.05;1.00;;;19.30;57.40;;;;;;5128948;27;45472;-68
2023/05/19 03:10:07;;;;;;;3.15;1.00;;;19.30;57.60;;;;;;5131983;27;45337;-68
2023/05/19 03:12:34;;;;;;;2.42;1.13;;;19.30;57.40;;;;;;5130481;27;45449;-68
2023/05/19 03:15:00;;;;;;;3.45;1.30;;;19.30;57.30;;;;;;5135778;27;45567;-68
2023/05/19 03:17:32;;;;;;;3.08;1.00;;;19.30;57.70;;;;;;5128087;27;47151;-69
2023/05/19 03:19:59;;;;;;;2.08;1.00;;;19.30;58.10;;;;;;5126238;27;45376;-68
2023/05/19 03:22:26;;;;;;;2.53;0.90;;;19.30;58.30;;;;;;5125953;27;45430;-69
2023/05/19 03:24:53;;;;;;;3.28;1.38;;;19.30;57.90;;;;;;5137993;27;45304;-69
2023/05/19 03:27:21;;;;;;;1.77;0.80;;;19.30;58.20;;;;;;5131217;27;46526;-70
2023/05/19 03:29:48;;;;;;;1.83;1.05;;;19.30;58.30;;;;;;5137730;27;45432;-69
2023/05/19 03:32:15;;;;;;;2.83;1.17;;;19.30;58.10;;;;;;5130939;27;45362;-68
2023/05/19 03:34:41;;;;;;;2.50;1.02;;;19.30;58.10;;;;;;5128713;27;45786;-68
2023/05/19 03:37:09;;;;;;;1.88;1.10;;;19.30;58.30;;;;;;5127436;27;46547;-69
2023/05/19 03:39:36;;;;;;;2.92;1.10;;;19.30;58.20;;;;;;5133137;27;45288;-68
2023/05/19 03:42:02;;;;;;;2.08;1.00;;;19.30;58.30;;;;;;5130604;27;45223;-68
2023/05/19 03:44:30;;;;;;;1.35;0.80;;;19.30;58.00;;;;;;5130661;27;45335;-69
2023/05/19 03:46:57;;;;;;;3.42;1.33;;;19.30;57.90;;;;;;5137131;27;47557;-68
2023/05/19 03:49:24;;;;;;;1.50;1.05;;;19.30;57.80;;;;;;5129622;27;45285;-69
2023/05/19 03:51:51;;;;;;;3.58;1.10;;;19.20;57.40;;;;;;5134753;27;45500;-68
2023/05/19 03:54:17;;;;;;;2.47;1.20;;;19.20;57.30;;;;;;5131204;27;45305;-69
2023/05/19 03:56:44;;;;;;;1.00;0.90;;;19.30;57.40;;;;;;5128735;27;45488;-68
2023/05/19 03:59:11;;;;;;;2.40;1.15;;;19.20;57.10;;;;;;5137650;27;45505;-68
2023/05/19 04:01:39;;;;;;;2.55;1.30;;;19.20;56.60;;;;;;5126807;27;45415;-69
2023/05/19 04:04:06;;;;;;;3.15;1.45;;;19.20;56.60;;;;;;5128787;27;45482;-69
2023/05/19 04:06:35;;;;;;;2.63;1.20;;;19.20;56.80;;;;;;5131699;27;47107;-69
2023/05/19 04:09:03;;;;;;;1.13;0.80;;;19.20;56.50;;;;;;5132074;27;45519;-69
2023/05/19 04:11:30;;;;;;;2.35;1.20;;;19.20;56.40;;;;;;5126826;27;45440;-68
2023/05/19 04:13:57;;;;;;;2.63;0.88;;;19.20;56.40;;;;;;5130970;27;45549;-69
2023/05/19 04:16:23;;;;;;;2.60;1.10;;;19.20;56.70;;;;;;5132243;27;47310;-69
2023/05/19 04:18:51;;;;;;;2.92;1.10;;;19.20;57.00;;;;;;5128064;27;46516;-69
2023/05/19 04:21:20;;;;;;;2.08;1.10;;;19.20;57.20;;;;;;5129757;27;45406;-69
2023/05/19 04:23:47;;;;;;;1.92;1.13;;;19.30;57.20;;;;;;5133890;27;45221;-69
2023/05/19 04:26:14;;;;;;;1.90;0.85;;;19.20;57.20;;;;;;5135750;27;45475;-68
2023/05/19 04:28:43;;;;;;;2.10;1.20;;;19.20;57.10;;;;;;5134127;27;45342;-69
2023/05/19 04:31:11;;;;;;;2.45;1.10;;;19.20;57.40;;;;;;5126750;27;45485;-70
2023/05/19 04:33:38;;;;;;;1.70;1.27;;;19.20;56.90;;;;;;5124720;27;45508;-69
2023/05/19 04:36:09;;;;;;;2.45;1.00;;;19.20;57.20;;;;;;5125218;27;46610;-69
2023/05/19 04:38:38;;;;;;;2.53;1.02;;;19.20;57.30;;;;;;5130925;27;45525;-69
2023/05/19 04:41:09;;;;;;;3.00;1.30;;;19.20;57.40;;;;;;5136670;27;45493;-68
2023/05/19 04:43:40;;;;;;;2.03;1.27;;;19.20;57.30;;;;;;5128826;27;45395;-68
2023/05/19 04:46:08;;;;;;;2.33;1.13;;;19.20;57.00;;;;;;5128818;27;48331;-68
2023/05/19 04:48:35;;;;;;;2.45;1.00;;;19.20;56.70;;;;;;5125892;27;45452;-68
2023/05/19 04:51:02;;;;;;;2.58;1.10;;;19.20;56.70;;;;;;5125760;27;45435;-68
2023/05/19 04:53:30;;;;;;;3.00;1.10;;;19.20;56.60;;;;;;5128638;27;45669;-68
2023/05/19 04:55:59;;;;;;;2.60;1.10;;;19.20;56.50;;;;;;5126590;27;46259;-69
2023/05/19 04:58:26;;;;;;;2.88;1.30;;;19.20;56.30;;;;;;5128879;27;45225;-68
2023/05/19 05:00:54;;;;;;;2.47;1.15;;;19.20;56.50;;;;;;5125681;27;45430;-68
2023/05/19 05:03:21;;;;;;;2.85;1.30;;;19.20;56.50;;;;;;5130913;27;45451;-68
2023/05/19 05:05:48;;;;;;;2.47;1.13;;;19.20;55.90;;;;;;5127341;27;46376;-68
2023/05/19 05:08:21;;;;;;;1.65;0.90;;;19.20;56.10;;;;;;5132936;27;45357;-68
2023/05/19 05:10:51;;;;;;;4.55;1.33;;;19.20;56.20;;;;;;5129298;27;45411;-68
2023/05/19 05:13:18;;;;;;;1.85;1.00;;;19.20;56.10;;;;;;5129950;27;45356;-69
2023/05/19 05:15:46;;;;;;;1.88;1.30;;;19.20;56.20;;;;;;5138127;27;47663;-68
2023/05/19 05:18:13;;;;;;;2.33;1.20;;;19.20;56.60;;;;;;5124781;27;46175;-69
2023/05/19 05:20:41;;;;;;;3.25;1.13;;;19.20;56.60;;;;;;5138086;27;45378;-69
2023/05/19 05:23:09;;;;;;;3.65;1.35;;;19.30;56.90;;;;;;5122775;27;45460;-68
2023/05/19 05:25:36;;;;;;;2.83;1.10;;;19.30;57.00;;;;;;5122543;27;46329;-68
2023/05/19 05:28:05;;;;;;;2.05;1.00;;;19.30;57.10;;;;;;5127748;27;45426;-68
2023/05/19 05:30:33;;;;;;;2.17;1.00;;;19.30;57.10;;;;;;5127591;27;45470;-68
2023/05/19 05:33:00;;;;;;;1.42;1.02;;;19.30;57.30;;;;;;5124574;27;45373;-69
2023/05/19 05:35:28;;;;;;;1.63;0.90;;;19.30;57.30;;;;;;5129426;27;47507;-67
2023/05/19 05:37:55;;;;;;;1.60;1.00;;;19.30;57.00;;;;;;5123348;27;45444;-68
2023/05/19 05:40:22;;;;;;;2.65;1.55;;;19.30;56.80;;;;;;5127152;27;45345;-68
2023/05/19 05:42:49;;;;;;;1.08;0.93;;;19.30;56.90;;;;;;5126094;27;45442;-68
2023/05/19 05:45:17;;;;;;;2.13;1.15;;;19.30;57.00;;;;;;5124652;27;46499;-69
2023/05/19 05:47:44;;;;;;;2.28;1.15;;;19.30;56.60;;;;;;5132864;27;45413;-69
2023/05/19 05:50:13;;;;;;;1.67;1.08;;;19.30;55.70;;;;;;5130091;27;45388;-69
2023/05/19 05:52:41;;;;;;;4.43;1.48;;;19.30;55.30;;;;;;5134236;27;45542;-69
2023/05/19 05:55:09;;;;;;;3.22;1.23;;;19.30;55.20;;;;;;5129767;27;47551;-69
2023/05/19 05:57:36;;;;;;;2.25;1.17;;;19.30;55.90;;;;;;5129617;27;45450;-69
2023/05/19 06:00:06;;;;;;;2.53;1.35;;;19.30;56.20;;;;;;5125938;27;45457;-68
2023/05/19 06:02:35;;;;;;;1.92;1.27;;;19.20;55.70;;;;;;5127986;27;45498;-71
2023/05/19 06:05:02;;;;;;;3.65;1.40;;;19.20;55.30;;;;;;5123812;27;46578;-70
2023/05/19 06:07:29;;;;;;;2.65;1.27;;;19.20;55.10;;;;;;5128265;27;45340;-69
2023/05/19 06:09:55;;;;;;;2.80;1.30;;;19.20;54.90;;;;;;5131942;27;45340;-70
2023/05/19 06:12:22;;;;;;;1.75;1.00;;;19.20;54.80;;;;;;5126798;27;45453;-69
2023/05/19 06:14:50;;;;;;;1.95;1.08;;;19.20;55.00;;;;;;5123726;27;46385;-69
2023/05/19 06:17:17;;;;;;;5.07;1.70;;;19.20;54.90;;;;;;5128912;27;45571;-69
2023/05/19 06:19:45;;;;;;;3.33;1.48;;;19.20;55.20;;;;;;5124116;27;45528;-69
2023/05/19 06:22:12;;;;;;;3.03;1.20;;;19.20;55.40;;;;;;5129277;27;45385;-72
2023/05/19 06:24:39;;;;;;;2.75;1.38;;;19.20;55.90;;;;;;5135961;27;46634;-69
2023/05/19 06:27:05;;;;;;;2.13;1.35;;;19.20;56.20;;;;;;5135700;27;45459;-69
2023/05/19 06:29:32;;;;;;;2.78;1.55;;;19.30;56.60;;;;;;5124845;27;45389;-69
2023/05/19 06:31:59;;;;;;;1.80;0.93;;;19.30;56.80;;;;;;5123709;27;45410;-69
2023/05/19 06:34:26;;;;;;;2.42;1.25;;;19.30;57.00;;;;;;5130275;27;46337;-69
2023/05/19 06:36:54;;;;;;;3.03;1.30;;;19.30;57.20;;;;;;5135086;27;46211;-69
2023/05/19 06:39:21;;;;;;;2.95;1.40;;;19.30;57.40;;;;;;5131964;27;45354;-69
2023/05/19 06:41:48;;;;;;;5.07;1.70;;;19.30;57.40;;;;;;5133924;27;45302;-68
2023/05/19 06:44:15;;;;;;;1.30;1.00;;;19.30;57.60;;;;;;5122562;27;47101;-69
2023/05/19 06:46:43;;;;;;;2.08;1.30;;;19.30;57.70;;;;;;5123761;27;45356;-71
2023/05/19 06:49:10;;;;;;;2.17;1.08;;;19.30;57.80;;;;;;5123322;27;45374;-69
2023/05/19 06:51:37;;;;;;;2.65;1.25;;;19.30;57.80;;;;;;5125797;27;45332;-69
2023/05/19 06:54:05;;;;;;;1.83;1.20;;;19.30;57.90;;;;;;5131031;27;46068;-69
2023/05/19 06:56:32;;;;;;;3.63;1.27;;;19.40;58.10;;;;;;5126906;27;45504;-68
2023/05/19 06:58:58;;;;;;;2.92;0.98;;;19.30;58.10;;;;;;5132071;27;45655;-69
2023/05/19 07:01:26;;;;;;;2.05;0.93;;;19.40;58.50;;;;;;5128785;27;45661;-69
2023/05/19 07:03:53;;;;;;;1.85;0.93;;;19.40;58.40;;;;;;5125317;27;46418;-69
2023/05/19 07:06:20;;;;;;;3.17;0.93;;;19.40;59.10;;;;;;5122607;27;45504;-69
2023/05/19 07:08:46;;;;;;;2.47;1.00;;;19.40;59.30;;;;;;5125188;27;45467;-69
2023/05/19 07:11:14;;;;;;;2.70;1.10;;;19.40;59.50;;;;;;5130841;27;45298;-70
2023/05/19 07:13:41;;;;;;;4.75;1.13;;;19.50;59.60;;;;;;5123779;27;47532;-69
2023/05/19 07:16:08;;;;;;;1.83;0.80;;;19.50;59.30;;;;;;5122227;27;45405;-69
2023/05/19 07:18:35;;;;;;;3.80;1.08;;;19.50;59.20;;;;;;5134739;27;45445;-70
2023/05/19 07:21:01;;;;;;;8.70;1.17;;;19.50;59.20;;;;;;5126685;27;45363;-72
2023/05/19 07:23:28;;;;;;;2.50;0.98;;;19.50;59.10;;;;;;5129042;27;45395;-71
2023/05/19 07:25:55;;;;;;;2.22;1.02;;;19.50;59.10;;;;;;5126538;27;45438;-70
2023/05/19 07:28:24;;;;;;;2.15;1.02;;;19.50;59.00;;;;;;5124319;27;45427;-71
2023/05/19 07:30:50;;;;;;;2.55;1.02;;;19.50;59.10;;;;;;5133811;27;45620;-71
2023/05/19 07:33:17;;;;;;;1.70;0.80;;;19.50;59.10;;;;;;5130912;27;48206;-70
2023/05/19 07:35:45;;;;;;;2.55;1.02;;;19.50;59.00;;;;;;5130478;27;45355;-71
2023/05/19 07:38:11;;;;;;;4.20;0.85;;;19.50;58.90;;;;;;5133630;27;45300;-70
2023/05/19 07:40:38;;;;;;;1.63;0.98;;;19.50;58.90;;;;;;5129264;27;45456;-70
2023/05/19 07:43:05;;;;;;;2.63;0.80;;;19.50;58.90;;;;;;5128736;27;46549;-73
2023/05/19 07:45:33;;;;;;;2.33;0.95;;;19.50;59.20;;;;;;5129026;27;45425;-69
2023/05/19 07:48:00;;;;;;;2.80;0.73;;;19.50;59.00;;;;;;5125945;27;45338;-70
2023/05/19 07:50:27;;;;;;;1.73;0.93;;;19.50;59.00;;;;;;5125328;27;45513;-70
2023/05/19 07:52:53;;;;;;;1.30;0.70;;;19.50;58.70;;;;;;5126626;27;48506;-69
2023/05/19 07:55:21;;;;;;;2.88;0.95;;;19.50;58.50;;;;;;5128134;27;45414;-69
2023/05/19 07:57:49;;;;;;;2.35;0.82;;;19.50;58.50;;;;;;5132802;27;45343;-69
2023/05/19 08:00:16;;;;;;;1.23;0.73;;;19.50;58.60;;;;;;5135709;27;45541;-70
2023/05/19 08:02:45;;;;;;;2.20;0.73;;;19.50;58.50;;;;;;5127644;27;47334;-70
2023/05/19 08:05:11;;;;;;;3.30;1.08;;;19.50;58.50;;;;;;5127783;27;45459;-70
2023/05/19 08:07:38;;;;;;;1.20;0.60;;;19.50;58.50;;;;;;5127951;27;45403;-70
2023/05/19 08:10:06;;;;;;;2.25;0.85;;;19.50;58.50;;;;;;5127605;27;45498;-69
2023/05/19 08:12:32;;;;;;;2.40;0.90;;;19.50;58.50;;;;;;5133811;27;48328;-69
2023/05/19 08:14:59;;;;;;;1.73;0.60;;;19.50;58.60;;;;;;5129463;27;45362;-70
2023/05/19 08:17:26;;;;;;;1.65;0.80;;;19.50;58.60;;;;;;5125372;27;45589;-69
2023/05/19 08:19:54;;;;;;;1.50;0.60;;;19.50;58.80;;;;;;5125959;27;45554;-69
2023/05/19 08:22:21;;;;;;;0.95;0.55;;;19.50;58.60;;;;;;5124980;27;47174;-69
2023/05/19 08:24:48;;;;;;;1.58;0.82;;;19.50;58.60;;;;;;5126097;27;45275;-70
2023/05/19 08:27:15;;;;;;;1.98;0.80;;;19.50;58.60;;;;;;5124107;27;45449;-70
2023/05/19 08:29:42;;;;;;;1.67;0.77;;;19.50;58.60;;;;;;5133895;27;45887;-69
2023/05/19 08:32:08;;;;;;;1.90;0.50;;;19.50;58.50;;;;;;5127394;27;47723;-69
2023/05/19 08:34:35;;;;;;;2.00;0.60;;;19.50;58.50;;;;;;5125397;27;45580;-69
2023/05/19 08:37:04;;;;;;;0.70;0.60;;;19.50;58.60;;;;;;5125333;27;45347;-69
2023/05/19 08:39:32;;;;;;;1.33;0.80;;;19.50;58.50;;;;;;5125106;27;45291;-70
2023/05/19 08:42:00;;;;;;;1.52;0.70;;;19.60;58.50;;;;;;5124827;27;45668;-70
2023/05/19 08:44:27;;;;;;;0.50;0.50;;;19.60;58.60;;;;;;5124652;27;45371;-69
2023/05/19 08:46:55;;;;;;;1.08;0.57;;;19.60;58.50;;;;;;5127277;27;45274;-69
2023/05/19 08:49:27;;;;;;;2.05;0.70;;;19.60;58.50;;;;;;5130997;27;45655;-70
2023/05/19 08:52:02;;;;;;;1.80;0.80;;;19.60;58.40;;;;;;5132266;27;46522;-69
2023/05/19 08:54:38;;;;;;;1.02;0.73;;;19.60;58.40;;;;;;5131155;27;45548;-70
2023/05/19 08:57:06;;;;;;;2.35;0.77;;;19.60;58.30;;;;;;5124402;27;45432;-69
2023/05/19 08:59:34;;;;;;;1.88;0.75;;;19.60;58.30;;;;;;5134429;27;45341;-70
2023/05/19 09:02:02;;;;;;;9.73;1.30;;;19.60;58.60;;;;;;5135343;27;46397;-69
2023/05/19 09:04:29;;;;;;;16.83;0.93;;;19.60;60.20;;;;;;5124638;27;45393;-69
2023/05/19 09:06:57;;;;;;;1.02;0.70;;;19.60;59.70;;;;;;5126112;27;45389;-70
2023/05/19 09:09:24;;;;;;;1.73;0.57;;;19.60;59.40;;;;;;5133807;27;45432;-70
2023/05/19 09:11:53;;;;;;;2.38;0.63;;;19.60;59.20;;;;;;5123384;27;47365;-70
2023/05/19 09:14:19;;;;;;;3.42;1.10;;;19.60;59.10;;;;;;5134612;27;45208;-71
2023/05/19 09:16:49;;;;;;;3.33;0.60;;;19.60;58.90;;;;;;5139917;27;45209;-71
2023/05/19 09:19:16;;;;;;;0.98;0.60;;;19.50;58.80;;;;;;5128100;27;45379;-70
2023/05/19 09:21:44;;;;;;;3.22;0.80;;;19.60;59.00;;;;;;5126405;27;45485;-70
2023/05/19 09:24:11;;;;;;;2.13;0.73;;;19.60;59.00;;;;;;5132339;27;45394;-70
2023/05/19 09:26:39;;;;;;;1.35;0.57;;;19.60;59.00;;;;;;5126797;27;45541;-71
2023/05/19 09:29:18;;;;;;;2.55;0.88;;;19.60;58.80;;;;;;5124029;27;45531;-71
2023/05/19 09:31:50;;;;;;;1.10;0.60;;;19.60;58.80;;;;;;5124134;27;46067;-70
2023/05/19 09:34:17;;;;;;;1.42;0.60;;;19.60;58.80;;;;;;5124096;27;46006;-71
2023/05/19 09:36:43;;;;;;;4.60;0.77;;;19.60;58.70;;;;;;5124637;27;45367;-71
2023/05/19 09:39:14;;;;;;;2.03;0.70;;;19.60;58.70;;;;;;5127330;27;45378;-71
2023/05/19 09:41:41;;;;;;;0.82;0.50;;;19.60;58.70;;;;;;5130887;27;46601;-70
2023/05/19 09:44:12;;;;;;;1.05;0.60;;;19.60;58.70;;;;;;5125081;27;45355;-70
2023/05/19 09:46:47;;;;;;;3.20;0.73;;;19.60;58.60;;;;;;5120430;27;45469;-70
2023/05/19 09:49:18;;;;;;;0.85;0.52;;;19.60;58.50;;;;;;5128055;27;45375;-70
2023/05/19 09:51:45;;;;;;;1.52;0.60;;;19.60;58.50;;;;;;5122773;27;46518;-70
2023/05/19 09:54:15;;;;;;;1.30;0.60;;;19.60;58.40;;;;;;5121251;27;45632;-70
2023/05/19 09:56:42;;;;;;;3.13;0.75;;;19.60;58.30;;;;;;5122398;27;45411;-70
2023/05/19 09:59:08;;;;;;;1.48;0.75;;;19.60;58.40;;;;;;5128337;27;45694;-70
2023/05/19 10:01:39;;;;;;;1.38;0.57;;;19.60;58.50;;;;;;5123841;27;45471;-70
2023/05/19 10:04:07;;;;;;;2.47;0.75;;;19.60;58.60;;;;;;5123203;27;45437;-71
2023/05/19 10:06:35;;;;;;;1.25;0.57;;;19.60;58.70;;;;;;5123293;27;45511;-71
2023/05/19 10:09:02;;;;;;;2.92;0.88;;;19.60;58.60;;;;;;5126777;27;45573;-70
2023/05/19 10:11:30;;;;;;;1.20;0.50;;;19.60;58.60;;;;;;5123539;27;46429;-70
2023/05/19 10:13:57;;;;;;;4.72;0.70;;;19.60;58.70;;;;;;5125453;27;45496;-70
2023/05/19 10:16:27;;;;;;;1.45;0.70;;;19.60;58.60;;;;;;5124057;27;45666;-72
2023/05/19 10:18:56;;;;;;;1.92;0.55;;;19.60;58.60;;;;;;5124030;27;45414;-72
2023/05/19 10:21:24;;;;;;;1.38;0.80;;;19.60;58.60;;;;;;5123641;27;45429;-70
2023/05/19 10:23:51;;;;;;;2.92;0.65;;;19.60;58.70;;;;;;5123188;27;45430;-70
2023/05/19 10:26:20;;;;;;;1.02;0.50;;;19.60;58.80;;;;;;5125865;27;45517;-70
2023/05/19 10:28:48;;;;;;;2.15;0.63;;;19.60;58.80;;;;;;5124632;27;45308;-69
2023/05/19 10:31:40;;;;;;;1.33;0.70;;;19.60;58.80;;;;;;5130521;27;45281;-78
2023/05/19 10:34:22;;;;;;;3.75;0.95;;;19.60;58.80;;;;;;5125325;27;45339;-70
2023/05/19 10:36:56;;;;;;;1.75;0.60;;;19.60;59.60;;;;;;5123100;27;45300;-70
2023/05/19 10:39:28;;;;;;;1.98;0.60;;;19.70;59.10;;;;;;5131462;27;45467;-70
2023/05/19 10:42:03;;;;;;;1.95;0.82;;;19.60;58.60;;;;;;5133134;27;48439;-70
2023/05/19 10:44:40;;;;;;;4.40;0.70;;;19.60;58.60;;;;;;5125105;27;45261;-70
2023/05/19 10:47:10;;;;;;;2.05;0.55;;;19.70;58.70;;;;;;5123137;27;45362;-70
2023/05/19 10:49:37;;;;;;;2.72;0.50;;;19.70;58.80;;;;;;5129161;27;45388;-69
2023/05/19 10:52:20;;;;;;;2.03;0.80;;;19.70;58.80;;;;;;5126887;27;45365;-70
2023/05/19 10:54:47;;;;;;;1.70;0.88;;;19.70;58.60;;;;;;5122738;27;46106;-70
2023/05/19 10:57:17;;;;;;;1.20;0.70;;;19.70;58.60;;;;;;5131404;27;45370;-70
2023/05/19 10:59:44;;;;;;;1.42;0.70;;;19.70;58.50;;;;;;5135776;27;45310;-69
2023/05/19 11:02:31;;;;;;;1.38;0.57;;;19.70;58.40;;;;;;5125519;27;48163;-69
2023/05/19 11:05:08;;;;;;;2.40;0.70;;;19.60;58.50;;;;;;5122433;27;45251;-69
2023/05/19 11:07:36;;;;;;;1.83;0.70;;;19.70;58.50;;;;;;5133516;27;45334;-70
2023/05/19 11:10:06;;;;;;;3.40;0.93;;;19.60;58.40;;;;;;5132910;27;45473;-70
2023/05/19 11:12:41;;;;;;;2.30;0.93;;;19.70;58.50;;;;;;5128128;27;45318;-69
2023/05/19 11:15:11;;;;;;;7.50;0.70;;;19.70;58.40;;;;;;5134551;27;45447;-70
2023/05/19 11:17:40;;;;;;;1.83;0.70;;;19.70;58.30;;;;;;5125896;27;45548;-70
2023/05/19 11:20:09;;;;;;;1.45;0.50;;;19.70;59.40;;;;;;5129214;27;45383;-70
2023/05/19 11:22:37;;;;;;;1.75;0.60;;;19.70;58.50;;;;;;5127499;27;46201;-71
2023/05/19 11:25:06;;;;;;;3.03;0.63;;;19.70;58.50;;;;;;5130221;27;45391;-69
2023/05/19 11:27:36;;;;;;;1.10;0.70;;;19.70;58.60;;;;;;5129466;27;45395;-69
2023/05/19 11:30:13;;;;;;;0.60;0.50;;;19.70;58.50;;;;;;5138708;27;45708;-70
2023/05/19 11:32:41;;;;;;;1.10;0.57;;;19.70;58.70;;;;;;5129089;27;47163;-70
2023/05/19 11:35:09;;;;;;;1.73;0.73;;;19.70;58.80;;;;;;5131742;27;45387;-70
2023/05/19 11:37:39;;;;;;;0.77;0.52;;;19.70;58.80;;;;;;5130379;27;45610;-70
2023/05/19 11:40:07;;;;;;;1.38;0.75;;;19.70;58.70;;;;;;5130781;27;45553;-70
2023/05/19 11:42:35;;;;;;;1.13;0.60;;;19.70;58.90;;;;;;5129067;27;47253;-70
2023/05/19 11:45:02;;;;;;;0.75;0.60;;;19.70;58.90;;;;;;5132195;27;45351;-70
2023/05/19 11:47:31;;;;;;;1.23;0.52;;;19.70;58.80;;;;;;5127700;27;45375;-70
2023/05/19 11:49:58;;;;;;;0.80;0.50;;;19.70;58.70;;;;;;5126763;27;45775;-70
2023/05/19 11:52:26;;;;;;;4.15;0.80;;;19.70;59.90;;;;;;5126413;27;47536;-71
2023/05/19 11:54:55;;;;;;;1.73;0.80;;;19.70;58.60;;;;;;5125559;27;45393;-70
2023/05/19 11:57:22;;;;;;;1.90;0.60;;;19.70;58.60;;;;;;5129467;27;45359;-70
2023/05/19 11:59:51;;;;;;;1.35;0.60;;;19.70;58.60;;;;;;5130114;27;45399;-70
2023/05/19 12:02:19;;;;;;;1.33;0.60;;;19.70;58.80;;;;;;5132784;27;47671;-70
2023/05/19 12:04:46;;;;;;;0.90;0.60;;;19.70;58.70;;;;;;5127073;27;45483;-70
2023/05/19 12:07:16;;;;;;;1.83;0.70;;;19.70;58.70;;;;;;5126924;27;45513;-74
2023/05/19 12:09:44;;;;;;;3.03;0.82;;;19.70;58.70;;;;;;5134075;27;45308;-70
2023/05/19 12:12:14;;;;;;;2.17;0.77;;;19.70;60.50;;;;;;5142653;27;46657;-70
2023/05/19 12:14:40;;;;;;;2.70;1.00;;;19.70;60.00;;;;;;5130100;27;45920;-70
2023/05/19 12:17:12;;;;;;;1.67;0.60;;;19.70;59.70;;;;;;5123767;27;45478;-70
2023/05/19 12:19:40;;;;;;;2.08;0.82;;;19.70;59.80;;;;;;5129696;27;45636;-70
2023/05/19 12:22:07;;;;;;;3.25;0.50;;;19.70;59.80;;;;;;5136202;27;48327;-70
2023/05/19 12:24:34;;;;;;;1.23;0.50;;;19.70;59.90;;;;;;5124274;27;45361;-70
2023/05/19 12:27:12;;;;;;;1.83;0.65;;;19.70;59.70;;;;;;5129666;27;45391;-70
2023/05/19 12:29:40;;;;;;;2.03;0.80;;;19.70;59.50;;;;;;5129207;27;45506;-70
2023/05/19 12:32:08;;;;;;;1.27;0.60;;;19.70;59.50;;;;;;5136099;27;46085;-71
2023/05/19 12:34:37;;;;;;;4.15;0.70;;;19.70;59.50;;;;;;5134724;27;45366;-70
2023/05/19 12:37:04;;;;;;;1.70;0.65;;;19.70;59.40;;;;;;5133565;27;45395;-70
2023/05/19 12:39:31;;;;;;;1.45;0.63;;;19.70;59.30;;;;;;5139572;27;45221;-70
2023/05/19 12:42:02;;;;;;;1.95;0.70;;;19.70;59.10;;;;;;5129198;27;47699;-70
2023/05/19 12:44:31;;;;;;;0.80;0.52;;;19.70;58.90;;;;;;5124751;27;45382;-70
2023/05/19 12:46:58;;;;;;;3.00;0.65;;;19.80;58.90;;;;;;5124931;27;45536;-70
2023/05/19 12:49:24;;;;;;;0.70;0.40;;;19.70;59.10;;;;;;5125700;27;45448;-70
2023/05/19 12:51:52;;;;;;;1.75;0.70;;;19.70;59.10;;;;;;5126002;27;46551;-70
2023/05/19 12:54:20;;;;;;;1.58;0.73;;;19.70;58.80;;;;;;5129601;27;45423;-70